.
WxDataArchive / Data Records for 2014-07-22
2014-07-21 July 2014 2014-07-23

Data Records for Tuesday, 22 July 2014

Time	Temp	Chill	HIndex	Humid	Dewpt	 Wind 	HiWind	WindDir	Rain 	Barom
-----	----	-----	------	-----	-----	------	------	-------	-----	-----
00:00	69.8	69.8	69.8	77	62.3	0	0	---	0.00	30.055 
00:05	69.6	69.6	69.6	78	62.4	0	0	---	0.00	30.055 
00:10	69.4	69.4	69.4	79	62.6	0	0	---	0.00	30.055 
00:15	69.3	69.3	69.3	79	62.5	0	0	---	0.00	30.054 
00:20	69.1	69.1	69.1	80	62.7	0	0	---	0.00	30.054 
00:25	68.9	68.9	68.9	80	62.5	0	0	---	0.00	30.054 
00:30	68.8	68.8	68.8	81	62.7	0	0	---	0.00	30.053 
00:35	68.6	68.6	68.6	81	62.5	0	0	---	0.00	30.053 
00:40	68.4	68.4	68.4	81	62.3	0	0	---	0.00	30.053 
00:45	68.4	68.4	68.4	81	62.3	0	0	---	0.00	30.048 
00:50	68.3	68.3	68.3	82	62.6	0	0	---	0.00	30.048 
00:55	68.1	68.1	68.1	82	62.4	0	0	---	0.00	30.048 
01:00	67.9	67.9	67.9	83	62.5	0	0	---	0.00	30.050 
01:05	67.8	67.8	67.8	83	62.4	0	0	---	0.00	30.050 
01:10	67.6	67.6	67.6	83	62.2	0	0	---	0.00	30.050 
01:15	67.6	67.6	67.6	84	62.6	0	0	---	0.00	30.047 
01:20	67.4	67.4	67.4	84	62.4	0	0	---	0.00	30.047 
01:25	67.3	67.3	67.3	84	62.3	0	0	---	0.00	30.047 
01:30	67.3	67.3	67.3	84	62.3	0	0	---	0.00	30.046 
01:35	67.1	67.1	67.1	84	62.1	0	0	---	0.00	30.046 
01:40	66.9	66.9	66.9	84	61.9	0	0	---	0.00	30.046 
01:45	66.9	66.9	66.9	85	62.2	0	0	---	0.00	30.043 
01:50	66.8	66.8	66.8	85	62.1	0	0	---	0.00	30.043 
01:55	66.6	66.6	66.6	85	61.9	0	0	---	0.00	30.043 
02:00	66.6	66.6	66.6	86	62.3	0	0	---	0.00	30.042 
02:05	66.4	66.4	66.4	86	62.1	0	0	---	0.00	30.042 
02:10	66.3	66.3	66.3	86	62.0	0	0	---	0.00	30.042 
02:15	66.1	66.1	66.1	87	62.1	0	0	---	0.00	30.043 
02:20	66.0	66.0	66.0	87	62.0	0	0	---	0.00	30.043 
02:25	66.0	66.0	66.0	87	62.0	0	0	---	0.00	30.043 
02:30	66.0	66.0	66.0	88	62.3	0	0	---	0.00	30.042 
02:35	65.8	65.8	65.8	88	62.1	0	0	---	0.00	30.042 
02:40	65.6	65.6	65.6	88	61.9	0	0	---	0.00	30.042 
02:45	65.6	65.6	65.6	88	61.9	0	0	---	0.00	30.044 
02:50	65.5	65.5	65.5	88	61.8	0	0	---	0.00	30.044 
02:55	65.5	65.5	65.5	88	61.8	0	0	---	0.00	30.044 
03:00	65.5	65.5	65.5	88	61.8	0	0	---	0.00	30.043 
03:05	65.3	65.3	65.3	88	61.6	0	0	---	0.00	30.043 
03:10	65.2	65.2	65.2	88	61.6	0	0	---	0.00	30.043 
03:15	65.2	65.2	65.2	89	61.9	0	0	---	0.00	30.040 
03:20	65.0	65.0	65.0	89	61.7	0	0	---	0.00	30.040 
03:25	65.0	65.0	65.0	89	61.7	0	0	---	0.00	30.040 
03:30	64.8	64.8	64.8	89	61.5	0	0	---	0.00	30.040 
03:35	64.7	64.7	64.7	90	61.7	0	0	---	0.00	30.040 
03:40	64.7	64.7	64.7	90	61.7	0	0	---	0.00	30.040 
03:45	64.7	64.7	64.7	90	61.7	0	0	---	0.00	30.042 
03:50	64.7	64.7	64.7	90	61.7	0	0	---	0.00	30.042 
03:55	64.7	64.7	64.7	90	61.7	0	0	---	0.00	30.042 
04:00	64.7	64.7	64.7	91	62.0	0	0	---	0.00	30.048 
04:05	64.7	64.7	64.7	91	62.0	0	0	---	0.00	30.048 
04:10	64.5	64.5	64.5	91	61.8	0	0	---	0.00	30.048 
04:15	64.5	64.5	64.5	91	61.8	0	0	---	0.00	30.055 
04:20	64.5	64.5	64.5	91	61.8	0	0	---	0.00	30.055 
04:25	64.3	64.3	64.3	91	61.6	0	0	---	0.00	30.055 
04:30	64.2	64.2	64.2	91	61.5	0	0	---	0.00	30.055 
04:35	64.2	64.2	64.2	92	61.8	0	0	---	0.00	30.055 
04:40	64.2	64.2	64.2	92	61.8	0	0	---	0.00	30.055 
04:45	64.0	64.0	64.0	92	61.6	0	0	---	0.00	30.057 
04:50	64.0	64.0	64.0	92	61.6	0	0	---	0.00	30.057 
04:55	63.9	63.9	63.9	92	61.5	0	0	---	0.00	30.057 
05:00	63.9	63.9	63.9	92	61.5	0	0	---	0.00	30.056 
05:05	63.7	63.7	63.7	92	61.3	0	0	---	0.00	30.056 
05:10	63.7	63.7	63.7	92	61.3	0	0	---	0.00	30.056 
05:15	63.5	63.5	63.5	92	61.1	0	0	---	0.00	30.055 
05:20	63.5	63.5	63.5	92	61.1	0	0	---	0.00	30.055 
05:25	63.4	63.4	63.4	92	61.0	0	0	---	0.00	30.055 
05:30	63.4	63.4	63.4	92	61.0	0	0	---	0.00	30.058 
05:35	63.2	63.2	63.2	92	60.8	0	0	---	0.00	30.058 
05:40	63.2	63.2	63.2	92	60.8	0	0	---	0.00	30.058 
05:45	63.2	63.2	63.2	92	60.8	0	0	---	0.00	30.059 
05:50	63.1	63.1	63.1	92	60.7	0	0	---	0.00	30.059 
05:55	62.9	62.9	62.9	92	60.5	0	0	---	0.00	30.059 
06:00	62.9	62.9	62.9	93	60.8	0	0	---	0.00	30.064 
06:05	62.9	62.9	62.9	93	60.8	0	0	---	0.00	30.064 
06:10	62.9	62.9	62.9	93	60.8	0	0	---	0.00	30.064 
06:15	62.7	62.7	62.7	93	60.6	0	0	---	0.00	30.070 
06:20	62.7	62.7	62.7	93	60.6	0	0	---	0.00	30.070 
06:25	62.7	62.7	62.7	93	60.6	0	0	---	0.00	30.070 
06:30	62.6	62.6	62.6	93	60.5	0	0	---	0.00	30.071 
06:35	62.6	62.6	62.6	93	60.5	0	0	---	0.00	30.071 
06:40	62.6	62.6	62.6	93	60.5	0	0	---	0.00	30.071 
06:45	62.6	62.6	62.6	93	60.5	0	0	---	0.00	30.066 
06:50	62.4	62.4	62.4	93	60.3	0	0	---	0.00	30.066 
06:55	62.6	62.6	62.6	93	60.5	0	0	---	0.00	30.066 
07:00	62.6	62.6	62.6	93	60.5	0	0	---	0.00	30.066 
07:05	62.7	62.7	62.7	93	60.6	0	0	---	0.00	30.066 
07:10	62.9	62.9	62.9	93	60.8	0	0	---	0.00	30.066 
07:15	62.9	62.9	62.9	93	60.8	0	0	---	0.00	30.073 
07:20	63.2	63.2	63.2	93	61.1	0	0	---	0.00	30.073 
07:25	63.4	63.4	63.4	93	61.3	0	0	---	0.00	30.073 
07:30	63.5	63.5	63.5	94	61.7	0	0	---	0.00	30.075 
07:35	63.9	63.9	63.9	94	62.1	0	0	---	0.00	30.075 
07:40	64.3	64.3	64.3	94	62.5	0	0	---	0.00	30.075 
07:45	65.0	65.0	65.0	94	63.2	0	0	---	0.00	30.076 
07:50	65.8	65.8	65.8	94	64.0	0	0	---	0.00	30.076 
07:55	66.6	66.6	66.6	92	64.2	0	0	---	0.00	30.076 
08:00	67.6	67.6	67.6	91	64.9	0	0	---	0.00	30.072 
08:05	68.3	68.3	68.3	89	64.9	0	0	---	0.00	30.072 
08:10	69.1	69.1	69.1	88	65.4	0	0	---	0.00	30.072 
08:15	70.1	70.1	70.1	84	65.0	0	1	135	0.00	30.072 
08:20	71.1	71.1	71.1	81	65.0	0	0	---	0.00	30.072 
08:25	72.0	72.0	72.0	78	64.8	0	0	---	0.00	30.072 
08:30	72.7	72.7	72.7	76	64.7	0	1	135	0.00	30.069 
08:35	73.5	73.5	73.5	75	65.1	0	1	135	0.00	30.069 
08:40	74.2	74.2	74.2	74	65.4	0	0	---	0.00	30.069 
08:45	74.9	74.9	74.9	72	65.2	0	1	135	0.00	30.072 
08:50	75.6	75.6	77.2	71	65.5	0	1	135	0.00	30.072 
08:55	76.5	76.5	78.2	69	65.6	0	1	135	0.00	30.072 
09:00	76.8	76.8	78.6	69	65.8	0	1	135	0.00	30.069 
09:05	76.8	76.8	78.6	68	65.4	0	1	135	0.00	30.069 
09:10	77.6	77.6	79.4	66	65.3	0	1	135	0.00	30.069 
09:15	78.1	78.1	80.0	65	65.4	0	1	135	0.00	30.070 
09:20	78.5	78.5	80.4	64	65.3	0	1	135	0.00	30.070 
09:25	78.6	78.6	80.6	65	65.8	0	0	---	0.00	30.070 
09:30	79.4	79.4	81.6	65	66.6	0	0	---	0.00	30.070 
09:35	80.1	80.1	82.0	61	65.4	0	1	135	0.00	30.070 
09:40	81.1	81.1	83.3	61	66.4	0	2	135	0.00	30.070 
09:45	81.6	81.6	83.5	58	65.4	0	1	135	0.00	30.067 
09:50	82.0	82.0	83.9	57	65.2	0	1	135	0.00	30.067 
09:55	82.0	82.0	83.7	56	64.7	0	1	135	0.00	30.067 
10:00	81.8	81.8	83.8	58	65.6	0	1	135	0.00	30.057 
10:05	82.0	82.0	83.4	54	63.7	0	2	135	0.00	30.057 
10:10	82.2	82.2	83.8	55	64.4	0	1	135	0.00	30.057 
10:15	82.6	82.6	84.0	53	63.7	0	2	135	0.00	30.054 
10:20	82.8	82.8	84.4	54	64.4	0	2	135	0.00	30.054 
10:25	82.8	82.8	84.6	55	65.0	0	2	135	0.00	30.054 
10:30	83.2	83.2	84.9	54	64.8	0	2	135	0.00	30.049 
10:35	83.2	83.2	84.9	54	64.8	0	1	135	0.00	30.049 
10:40	83.4	83.4	84.8	52	63.9	0	3	158	0.00	30.049 
10:45	83.6	83.6	84.8	51	63.5	0	3	158	0.00	30.045 
10:50	84.1	84.1	85.7	52	64.5	0	2	158	0.00	30.045 
10:55	84.3	84.3	86.0	52	64.7	0	2	202	0.00	30.045 
11:00	84.5	84.5	86.0	51	64.4	0	1	202	0.00	30.036 
11:05	84.7	84.7	86.3	51	64.5	0	2	202	0.00	30.036 
11:10	85.3	85.3	86.4	48	63.4	1	2	158	0.00	30.036 
11:15	85.3	85.3	86.6	49	63.9	0	2	202	0.00	30.024 
11:20	85.1	85.1	86.4	49	63.8	1	4	292	0.00	30.024 
11:25	85.1	85.1	87.1	52	65.5	0	1	292	0.00	30.024 
11:30	85.5	85.5	87.7	52	65.8	0	3	315	0.00	30.025 
11:35	85.9	85.9	87.2	48	63.9	0	1	338	0.00	30.025 
11:40	85.7	85.7	87.2	49	64.3	1	4	248	0.00	30.025 
11:45	85.5	85.5	87.2	50	64.7	1	3	248	0.00	30.020 
11:50	85.7	85.7	86.9	48	63.7	1	3	248	0.00	30.020 
11:55	85.7	85.7	86.9	48	63.7	1	4	270	0.00	30.020 
12:00	85.9	85.9	87.2	48	63.9	0	2	315	0.00	30.017 
12:05	86.3	86.3	87.5	47	63.7	1	2	22	0.00	30.017 
12:10	86.7	86.7	88.3	48	64.6	1	4	90	0.00	30.017 
12:15	86.5	86.5	87.8	47	63.8	2	9	68	0.00	30.015 
12:20	86.3	86.3	87.2	46	63.0	1	3	22	0.00	30.015 
12:25	86.3	86.3	88.0	49	64.9	1	3	22	0.00	30.015 
12:30	86.5	86.5	88.6	50	65.6	1	3	315	0.00	30.009 
12:35	86.5	86.5	87.5	46	63.2	1	4	270	0.00	30.009 
12:40	86.7	86.7	88.1	47	64.0	1	3	270	0.00	30.009 
12:45	86.7	86.7	88.1	47	64.0	1	3	270	0.00	30.009 
12:50	86.7	86.7	88.1	47	64.0	1	3	112	0.00	30.009 
12:55	86.3	86.3	87.8	48	64.3	1	5	270	0.00	30.009 
13:00	86.7	86.7	88.3	48	64.6	1	4	270	0.00	30.004 
13:05	87.4	87.4	88.8	46	64.0	1	3	270	0.00	30.004 
13:10	87.8	87.8	90.0	48	65.6	1	3	270	0.00	30.004 
13:15	88.0	88.0	89.7	46	64.6	1	4	248	0.00	30.005 
13:20	87.8	87.8	89.7	47	65.0	1	5	90	0.00	30.005 
13:25	88.0	88.0	90.0	47	65.2	1	3	90	0.00	30.005 
13:30	88.2	88.2	90.0	46	64.8	1	3	45	0.00	30.002 
13:35	87.8	87.8	89.4	46	64.4	1	4	292	0.00	30.002 
13:40	87.6	87.6	89.1	46	64.2	1	4	292	0.00	30.002 
13:45	88.0	88.0	90.7	49	66.4	0	2	292	0.00	29.995 
13:50	88.6	88.6	91.0	47	65.7	1	3	292	0.00	29.995 
13:55	88.8	88.8	90.9	46	65.3	0	2	292	0.00	29.995 
14:00	88.4	88.4	90.3	46	64.9	2	4	292	0.00	30.001 
14:05	88.2	88.2	90.0	46	64.8	2	6	270	0.00	30.001 
14:10	88.4	88.4	90.3	46	64.9	1	3	248	0.00	30.001 
14:15	88.8	88.8	90.9	46	65.3	1	3	248	0.00	30.003 
14:20	89.0	89.0	90.9	45	64.9	1	4	270	0.00	30.003 
14:25	89.0	89.0	90.9	45	64.9	2	4	270	0.00	30.003 
14:30	88.8	88.8	90.6	45	64.7	2	4	270	0.00	29.995 
14:35	88.6	88.6	90.6	46	65.1	1	5	292	0.00	29.995 
14:40	88.2	88.2	90.0	46	64.8	1	3	292	0.00	29.995 
14:45	88.2	88.2	89.7	45	64.1	1	4	292	0.00	29.991 
14:50	88.4	88.4	90.3	46	64.9	1	4	292	0.00	29.991 
14:55	88.6	88.6	90.3	45	64.5	2	6	270	0.00	29.991 
15:00	88.8	88.8	90.9	46	65.3	1	4	292	0.00	29.990 
15:05	88.6	88.6	90.3	45	64.5	2	6	270	0.00	29.990 
15:10	88.8	88.8	90.2	44	64.0	2	4	270	0.00	29.990 
15:15	89.0	89.0	90.5	44	64.2	1	3	292	0.00	29.989 
15:20	89.5	89.5	91.3	44	64.7	1	3	0	0.00	29.989 
15:25	89.7	89.7	91.3	43	64.2	1	5	270	0.00	29.989 
15:30	89.7	89.7	91.3	43	64.2	1	3	270	0.00	29.988 
15:35	89.7	89.7	92.0	45	65.5	1	5	90	0.00	29.988 
15:40	89.7	89.7	92.0	45	65.5	1	4	90	0.00	29.988 
15:45	89.5	89.5	91.0	43	64.0	1	4	90	0.00	29.986 
15:50	89.0	89.0	90.5	44	64.2	2	5	270	0.00	29.986 
15:55	89.0	89.0	90.5	44	64.2	1	4	270	0.00	29.986 
16:00	89.3	89.3	91.0	44	64.5	2	5	270	0.00	29.976 
16:05	89.5	89.5	91.7	45	65.3	1	6	270	0.00	29.976 
16:10	89.7	89.7	91.3	43	64.2	1	3	292	0.00	29.976 
16:15	89.9	89.9	91.9	44	65.0	1	2	292	0.00	29.974 
16:20	89.9	89.9	91.6	43	64.4	1	4	292	0.00	29.974 
16:25	89.9	89.9	92.7	46	66.3	0	2	292	0.00	29.974 
16:30	90.3	90.3	92.6	44	65.4	1	3	292	0.00	29.968 
16:35	90.3	90.3	92.2	43	64.7	1	3	270	0.00	29.968 
16:40	90.3	90.3	92.6	44	65.4	1	4	292	0.00	29.968 
16:45	90.3	90.3	91.8	42	64.0	1	3	315	0.00	29.961 
16:50	90.1	90.1	91.9	43	64.5	1	2	292	0.00	29.961 
16:55	90.1	90.1	91.9	43	64.5	1	4	292	0.00	29.961 
17:00	90.1	90.1	92.3	44	65.2	1	4	270	0.00	29.960 
17:05	90.1	90.1	92.3	44	65.2	1	3	270	0.00	29.960 
17:10	90.1	90.1	92.3	44	65.2	1	4	292	0.00	29.960 
17:15	89.9	89.9	92.3	45	65.7	1	4	292	0.00	29.958 
17:20	89.9	89.9	91.9	44	65.0	1	4	292	0.00	29.958 
17:25	89.5	89.5	92.1	46	65.9	1	4	270	0.00	29.958 
17:30	89.3	89.3	91.7	46	65.8	1	3	68	0.00	29.956 
17:35	89.3	89.3	91.4	45	65.1	1	3	248	0.00	29.956 
17:40	89.0	89.0	91.2	46	65.5	1	5	292	0.00	29.956 
17:45	89.3	89.3	91.4	45	65.1	0	3	292	0.00	29.947 
17:50	89.3	89.3	91.4	45	65.1	1	3	315	0.00	29.947 
17:55	89.0	89.0	90.9	45	64.9	1	2	292	0.00	29.947 
18:00	88.8	88.8	90.2	44	64.0	1	4	292	0.00	29.948 
18:05	88.6	88.6	89.9	44	63.9	1	4	292	0.00	29.948 
18:10	88.2	88.2	90.0	46	64.8	0	3	45	0.00	29.948 
18:15	88.0	88.0	89.7	46	64.6	1	3	292	0.00	29.946 
18:20	87.8	87.8	90.0	48	65.6	1	4	292	0.00	29.946 
18:25	87.6	87.6	89.7	48	65.4	1	3	0	0.00	29.946 
18:30	87.4	87.4	89.4	48	65.3	1	4	270	0.00	29.945 
18:35	87.2	87.2	89.1	48	65.1	1	3	292	0.00	29.945 
18:40	87.2	87.2	89.4	49	65.7	0	2	292	0.00	29.945 
18:45	87.0	87.0	89.4	50	66.1	0	2	292	0.00	29.942 
18:50	87.0	87.0	89.1	49	65.5	0	2	292	0.00	29.942 
18:55	86.5	86.5	88.3	49	65.0	0	1	315	0.00	29.942 
19:00	86.3	86.3	88.3	50	65.4	0	2	315	0.00	29.934 
19:05	86.3	86.3	88.3	50	65.4	1	6	68	0.00	29.934 
19:10	86.3	86.3	88.6	51	66.0	0	1	68	0.00	29.934 
19:15	86.1	86.1	88.0	50	65.3	1	3	270	0.00	29.934 
19:20	85.9	85.9	88.0	51	65.6	1	3	338	0.00	29.934 
19:25	85.9	85.9	88.0	51	65.6	0	2	338	0.00	29.934 
19:30	85.9	85.9	88.3	52	66.2	0	2	338	0.00	29.934 
19:35	85.7	85.7	87.7	51	65.5	0	2	338	0.00	29.934 
19:40	85.7	85.7	87.7	51	65.5	1	4	270	0.00	29.934 
19:45	85.7	85.7	87.7	51	65.5	1	3	270	0.00	29.937 
19:50	85.7	85.7	87.7	51	65.5	0	2	270	0.00	29.937 
19:55	85.5	85.5	87.2	50	64.7	1	3	270	0.00	29.937 
20:00	85.5	85.5	87.2	50	64.7	1	4	270	0.00	29.944 
20:05	85.3	85.3	86.6	49	63.9	1	4	270	0.00	29.944 
20:10	85.1	85.1	86.6	50	64.3	0	3	270	0.00	29.944 
20:15	84.9	84.9	86.3	50	64.2	1	4	270	0.00	29.938 
20:20	84.7	84.7	86.3	51	64.5	0	2	270	0.00	29.938 
20:25	84.7	84.7	86.5	52	65.1	0	3	270	0.00	29.938 
20:30	84.5	84.5	86.3	52	64.9	0	3	270	0.00	29.947 
20:35	84.1	84.1	85.7	52	64.5	1	3	270	0.00	29.947 
20:40	84.0	84.0	85.6	52	64.4	0	2	270	0.00	29.947 
20:45	83.8	83.8	85.3	52	64.3	0	2	270	0.00	29.949 
20:50	83.6	83.6	85.0	52	64.1	0	2	270	0.00	29.949 
20:55	83.6	83.6	85.2	53	64.6	0	4	270	0.00	29.949 
21:00	83.4	83.4	85.0	53	64.4	1	4	270	0.00	29.941 
21:05	83.2	83.2	84.7	53	64.3	0	2	270	0.00	29.941 
21:10	83.0	83.0	84.7	54	64.6	0	3	270	0.00	29.941 
21:15	82.8	82.8	84.4	54	64.4	0	2	270	0.00	29.933 
21:20	82.6	82.6	84.3	55	64.8	0	1	270	0.00	29.933 
21:25	82.4	82.4	84.2	56	65.1	0	2	270	0.00	29.933 
21:30	82.4	82.4	84.4	57	65.6	0	2	270	0.00	29.933 
21:35	82.0	82.0	83.9	57	65.2	0	1	270	0.00	29.933 
21:40	81.8	81.8	83.8	58	65.6	0	2	270	0.00	29.933 
21:45	81.8	81.8	83.8	58	65.6	0	3	270	0.00	29.930 
21:50	81.6	81.6	83.7	59	65.9	0	1	270	0.00	29.930 
21:55	81.4	81.4	83.4	59	65.7	0	1	270	0.00	29.930 
22:00	81.2	81.2	83.3	60	66.0	0	1	270	0.00	29.926 
22:05	81.1	81.1	83.2	60	65.9	0	1	270	0.00	29.926 
22:10	80.9	80.9	83.1	61	66.2	0	1	270	0.00	29.926 
22:15	80.9	80.9	83.1	61	66.2	0	1	270	0.00	29.929 
22:20	80.9	80.9	83.2	62	66.6	0	1	270	0.00	29.929 
22:25	80.7	80.7	82.9	62	66.4	0	2	270	0.00	29.929 
22:30	80.9	80.9	83.2	62	66.6	0	1	270	0.00	29.929 
22:35	80.7	80.7	82.9	62	66.4	0	1	270	0.00	29.929 
22:40	80.7	80.7	82.9	62	66.4	0	2	270	0.00	29.929 
22:45	80.5	80.5	82.8	63	66.7	0	3	270	0.00	29.919 
22:50	80.5	80.5	82.8	63	66.7	0	1	270	0.00	29.919 
22:55	80.5	80.5	82.8	63	66.7	0	3	270	0.00	29.919 
23:00	80.5	80.5	82.8	63	66.7	0	1	270	0.00	29.918 
23:05	80.5	80.5	82.8	63	66.7	0	2	270	0.00	29.918 
23:10	80.5	80.5	82.9	64	67.2	0	2	270	0.00	29.918 
23:15	80.5	80.5	82.9	64	67.2	0	2	270	0.00	29.915 
23:20	80.3	80.3	82.7	64	67.0	0	2	270	0.00	29.915 
23:25	80.3	80.3	82.8	65	67.4	0	3	270	0.00	29.915 
23:30	80.1	80.1	82.5	65	67.2	0	1	270	0.00	29.920 
23:35	79.9	79.9	82.2	65	67.1	0	1	270	0.00	29.920 
23:40	79.9	79.9	82.2	65	67.1	1	3	270	0.00	29.920 
23:45	79.8	79.8	82.2	66	67.4	0	2	270	0.00	29.925 
23:50	79.6	79.6	82.0	67	67.7	0	1	270	0.00	29.925 
23:55	79.6	79.6	82.0	67	67.7	1	3	270	0.00	29.925 

CoCoRaHS
IN-AL-39
A2 Web Hosting
Creative Commons License
GoDaddy
search engine by freefind advanced

loaded 2018-11-15 02:56:58 • last modified 2010-11-18 10:43:29
Privacy PolicyDisclaimer
• wx.awcolley.com is powered by PmWiki v.2002016 •
• all content (unless otherwise noted) © 2018 A W Colley